This is the latest recevied weather packets stored in our database for station/object OK3MS-5. If no packets are shown the sender has not sent any weather packets the latest 10 day(s).
| Time | Temp. | Humidity | Pressure | Rain* | Wind** | Luminosity | Snow |
|---|---|---|---|---|---|---|---|
| 1777813203 | 23.89° C | 33% | 1012.1 hPa | 0 mm | - | 663 W/m² | - |
| 1777812903 | 23.89° C | 34% | 1012 hPa | 0 mm | - | 665 W/m² | - |
| 1777812604 | 23.33° C | 29% | 1012.2 hPa | 0 mm | - | 683 W/m² | - |
| 1777812302 | 23.89° C | 32% | 1012.2 hPa | 0 mm | - | 679 W/m² | - |
| 1777812003 | 23.89° C | 33% | 1012.4 hPa | 0 mm | - | 681 W/m² | - |
| 1777811703 | 23.33° C | 30% | 1012.4 hPa | 0 mm | - | 692 W/m² | - |
| 1777811403 | 23.33° C | 30% | 1012.4 hPa | 0 mm | - | 707 W/m² | - |
| 1777811105 | 23.33° C | 32% | 1012.4 hPa | 0 mm | - | 707 W/m² | - |
| 1777810803 | 23.89° C | 33% | 1012.4 hPa | 0 mm | - | 711 W/m² | - |
| 1777810504 | 23.89° C | 34% | 1012.5 hPa | 0 mm | - | 716 W/m² | - |
| 1777810202 | 23.89° C | 31% | 1012.6 hPa | 0 mm | - | 726 W/m² | - |
| 1777809904 | 23.33° C | 33% | 1012.7 hPa | 0 mm | - | 725 W/m² | - |
| 1777809605 | 23.33° C | 33% | 1012.8 hPa | 0 mm | - | 728 W/m² | - |
| 1777809303 | 23.33° C | 34% | 1012.8 hPa | 0 mm | - | 735 W/m² | - |
| 1777809003 | 23.33° C | 32% | 1012.7 hPa | 0 mm | - | 741 W/m² | - |
| 1777808703 | 23.33° C | 33% | 1012.9 hPa | 0 mm | - | 739 W/m² | - |
| 1777808404 | 22.78° C | 33% | 1013.1 hPa | 0 mm | - | 746 W/m² | - |
| 1777808103 | 22.78° C | 33% | 1013.3 hPa | 0 mm | - | 741 W/m² | - |
| 1777807804 | 22.78° C | 35% | 1013.4 hPa | 0 mm | - | 744 W/m² | - |
| 1777807503 | 22.22° C | 34% | 1013.5 hPa | 0 mm | - | 749 W/m² | - |
| 1777807203 | 22.22° C | 33% | 1013.5 hPa | 0 mm | - | 755 W/m² | - |
| 1777806904 | 22.78° C | 34% | 1013.4 hPa | 0 mm | - | 756 W/m² | - |
| 1777806606 | 22.78° C | 36% | 1013.5 hPa | 0 mm | - | 751 W/m² | - |
| 1777806305 | 22.22° C | 37% | 1013.6 hPa | 0 mm | - | 753 W/m² | - |
| 1777806003 | 22.22° C | 36% | 1013.9 hPa | 0 mm | - | 756 W/m² | - |
* Rain latest hour (hover to see other rain measurements)
** Current wind speed in m/s (hover to see current wind gust speed)